Flight Track Log - Related Links

Times and Time Zones

All times are in EDT time to prevent confusion due to time zone crossing. See the UAL623 flight status page for this flight to view local times or setup timezone preferences in your user account.

Time Position Orientation Groundspeed Altitude Reporting Facility
EDT Latitude Longitude Course Direction KTS MPH feet Rate Location/Type
Mon 07:47:12 PM 41.9333 -87.9167 253° West 171 197 2,600  Level Chicago TRACON
Mon 07:48:12 PM 41.9000 -87.9667 228° Southwest 202 232 4,200 1,855 Climbing Chicago TRACON
Mon 07:49:00 PM 41.8657 -88.3608 242° Southwest  Level FlightAware Approximate
Mon 07:49:44 PM 41.8261 -88.0489 220° Southwest 243 280 7,300  Level Chicago Center
Mon 07:50:00 PM 41.8266 -88.5138 254° West  Level FlightAware Approximate
Mon 07:50:46 PM 41.8089 -88.1394 256° West 261 300 10,100  Level Chicago Center
Mon 07:51:00 PM 41.7922 -88.6696 254° West  Level FlightAware Approximate
Mon 07:51:48 PM 41.8025 -88.2375 265° West 266 306 12,500  Level Chicago Center
Mon 07:52:00 PM 41.7576 -88.8252 253° West  Level FlightAware Approximate
Mon 07:52:50 PM 41.7917 -88.3500 263° West 302 348 13,800  Level Chicago Center
Mon 07:53:52 PM 41.7739 -88.4975 261° West 333 383 16,200 2,129 Climbing Chicago Center
Mon 07:54:54 PM 41.7492 -88.6264 256° West 351 404 18,200 2,323 Climbing Chicago Center
Mon 07:55:56 PM 41.7225 -88.7586 255° West 367 422 21,000 2,468 Climbing Chicago Center
Mon 07:56:58 PM 41.6947 -88.8942 255° West 379 436 23,300 2,129 Climbing Chicago Center
Mon 07:58:00 PM 41.6653 -89.0364 255° West 395 455 25,400 1,742 Climbing Chicago Center
Mon 07:59:02 PM 41.6294 -89.2106 255° West 407 468 26,900 1,500 Climbing Chicago Center
Mon 08:00:04 PM 41.5989 -89.3636 255° West 424 488 28,500 1,403 Climbing Chicago Center
Mon 08:01:06 PM 41.5656 -89.5172 254° West 434 499 29,800 1,258 Climbing Chicago Center
Mon 08:02:08 PM 41.5306 -89.6822 254° West 442 509 31,100 1,161 Climbing Chicago Center
Mon 08:03:10 PM 41.4969 -89.8411 254° West 447 514 32,200 1,113 Climbing Chicago Center
Mon 08:04:12 PM 41.4622 -90.0008 254° West 450 518 33,400 1,113 Climbing Chicago Center
Mon 08:05:14 PM 41.4272 -90.1611 254° West 453 521 34,500 1,210 Climbing Chicago Center
Mon 08:06:16 PM 41.3858 -90.3508 254° West 448 516 35,900 726 Climbing Chicago Center
Mon 08:07:18 PM 41.3514 -90.5083 254° West 447 514 36,000 48 Climbing Chicago Center
Mon 08:08:20 PM 41.3150 -90.6697 253° West 454 522 36,000  Level Chicago Center
Mon 08:09:22 PM 41.2819 -90.8278 254° West 451 519 36,000  Level Chicago Center
Mon 08:10:24 PM 41.2514 -90.9867 256° West 447 514 36,000  Level Chicago Center
Mon 08:11:26 PM 41.2178 -91.1453 254° West 447 514 36,000  Level Chicago Center
Mon 08:12:28 PM 41.1769 -91.3372 254° West 449 517 36,000  Level Chicago Center
Mon 08:13:30 PM 41.1450 -91.4964 255° West 449 517 36,000  Level Chicago Center
Mon 08:14:32 PM 41.1122 -91.6556 255° West 449 517 36,000  Level Chicago Center
Mon 08:15:34 PM 41.0789 -91.8103 254° West 450 518 36,000  Level Chicago Center
Mon 08:16:36 PM 41.0372 -92.0017 254° West 455 524 36,000  Level Chicago Center
Mon 08:17:38 PM 41.0044 -92.1603 255° West 453 521 36,000  Level Chicago Center
Mon 08:18:40 PM 40.9700 -92.3186 254° West 453 521 36,000  Level Chicago Center
Mon 08:19:42 PM 40.9361 -92.4778 254° West 455 524 36,000  Level Chicago Center
Mon 08:20:44 PM 40.9006 -92.6361 254° West 456 525 36,000  Level Chicago Center
Mon 08:21:46 PM 40.8578 -92.8278 254° West 459 528 36,000  Level Chicago Center
Mon 08:22:22 PM 40.8372 -92.9244 254° West 460 529 36,000  Level Minneapolis Center
Mon 08:23:24 PM 40.8014 -93.0833 253° West 459 528 36,000  Level Minneapolis Center
Mon 08:24:25 PM 40.7633 -93.2436 253° West 458 527 36,000  Level Minneapolis Center
Mon 08:25:27 PM 40.7289 -93.3994 254° West 457 526 36,000  Level Minneapolis Center
Mon 08:26:29 PM 40.6917 -93.5592 253° West 460 529 36,000  Level Minneapolis Center
Mon 08:27:31 PM 40.6472 -93.7503 253° West 461 531 36,000  Level Minneapolis Center
Mon 08:28:33 PM 40.6103 -93.9083 253° West 458 527 36,000  Level Minneapolis Center
Mon 08:29:35 PM 40.5669 -94.0644 250° West 458 527 36,000  Level Minneapolis Center
Mon 08:30:36 PM 40.5192 -94.2175 248° West 457 526 36,000  Level Minneapolis Center
Mon 08:31:38 PM 40.4731 -94.3711 249° West 456 525 36,000  Level Minneapolis Center
Mon 08:32:40 PM 40.4181 -94.5539 248° West 454 522 36,000  Level Minneapolis Center
Mon 08:33:42 PM 40.3761 -94.6936 249° West 452 520 36,000  Level Minneapolis Center
Mon 08:34:44 PM 40.3286 -94.8489 248° West 454 522 36,000 48 Level Minneapolis Center
Mon 08:35:46 PM 40.2717 -95.0344 248° West 456 525 36,100  Climbing Minneapolis Center
Mon 08:36:47 PM 40.2322 -95.1575 247° West 457 526 36,000 -49 Descending Minneapolis Center
Mon 08:37:49 PM 40.1747 -95.3439 248° West 458 527 36,000  Level Minneapolis Center
Mon 08:38:52 PM 40.1258 -95.4983 248° West 458 527 36,000  Level Minneapolis Center
Mon 08:39:53 PM 40.0781 -95.6517 248° West 456 525 36,000  Level Minneapolis Center
Mon 08:40:55 PM 40.0389 -95.7711 247° West 454 522 36,000  Level Minneapolis Center
Mon 08:41:57 PM 39.9794 -95.9553 247° West 454 522 36,000  Level Minneapolis Center
Mon 08:42:59 PM 39.9206 -96.1394 247° West 457 526 36,000  Level Minneapolis Center
Mon 08:44:01 PM 39.8714 -96.2928 247° West 457 526 36,000  Level Minneapolis Center
Mon 08:45:15 PM 39.8217 -96.4453 247° West 457 526 36,000  Level Minneapolis Center
Mon 08:46:17 PM 39.7625 -96.6256 247° West 454 522 36,000  Level Minneapolis Center
Mon 08:47:16 PM 39.7131 -96.7764 247° West 453 521 36,000  Level Kansas City Center
Mon 08:48:18 PM 39.6597 -96.9325 246° West 457 526 36,000  Level Kansas City Center
Mon 08:49:19 PM 39.6100 -97.0817 247° West 455 524 36,000  Level Kansas City Center
Mon 08:50:21 PM 39.5614 -97.2286 247° West 455 524 36,000  Level Kansas City Center
Mon 08:51:23 PM 39.5036 -97.4000 246° West 455 524 36,000  Level Kansas City Center
Mon 08:52:25 PM 39.4500 -97.5594 247° West 455 524 36,000  Level Kansas City Center
Mon 08:53:26 PM 39.3981 -97.7108 246° West 458 527 36,000  Level Kansas City Center
Mon 08:54:28 PM 39.3461 -97.8625 246° West 461 531 36,000  Level Kansas City Center
Mon 08:55:30 PM 39.2981 -98.0022 246° West 463 533 36,000  Level Kansas City Center
Mon 08:56:32 PM 39.2392 -98.1708 246° West 462 532 36,000  Level Kansas City Center
Mon 08:57:33 PM 39.1894 -98.3158 246° West 461 531 36,000  Level Kansas City Center
Mon 08:58:27 PM 39.1353 -98.4681 245° Southwest 463 533 36,000  Level Denver Center
Mon 08:59:29 PM 39.0819 -98.6192 246° West 463 533 36,000  Level Denver Center
Mon 09:00:38 PM 39.0203 -98.7961 246° West 463 533 36,000  Level Kansas City Center
Mon 09:01:32 PM 38.9744 -98.9211 245° Southwest 464 534 36,000  Level Denver Center
Mon 09:02:34 PM 38.9203 -99.0744 246° West 462 532 36,000  Level Denver Center
Mon 09:03:36 PM 38.8606 -99.2417 245° Southwest 463 533 36,000  Level Denver Center
Mon 09:04:45 PM 38.8231 -99.4028 253° West 466 536 36,000  Level Kansas City Center
Mon 09:05:39 PM 38.7883 -99.5697 255° West 464 534 36,000  Level Denver Center
Mon 09:06:41 PM 38.7592 -99.7208 256° West 459 528 36,000  Level Denver Center
Mon 09:07:43 PM 38.7283 -99.8733 256° West 462 532 36,000  Level Denver Center
Mon 09:08:45 PM 38.6928 -100.0508 256° West 463 533 36,000  Level Denver Center
Mon 09:09:46 PM 38.6611 -100.1986 255° West 457 526 36,000  Level Denver Center
Mon 09:10:48 PM 38.6247 -100.3739 255° West 457 526 36,000  Level Denver Center
Mon 09:11:50 PM 38.5933 -100.5239 255° West 458 527 36,000  Level Denver Center
Mon 09:13:03 PM 38.5575 -100.7000 255° West 459 528 36,000  Level Denver Center
Mon 09:14:06 PM 38.5197 -100.8750 255° West 461 531 36,000  Level Denver Center
Mon 09:15:07 PM 38.4822 -101.0508 255° West 461 531 36,000  Level Denver Center
Mon 09:16:09 PM 38.4500 -101.2025 255° West 462 532 36,000  Level Denver Center
Mon 09:17:11 PM 38.4117 -101.3800 255° West 466 536 36,000  Level Denver Center
Mon 09:18:12 PM 38.3786 -101.5311 254° West 465 535 36,000  Level Denver Center
Mon 09:19:14 PM 38.3394 -101.7081 254° West 467 537 36,000  Level Denver Center
Mon 09:20:16 PM 38.3058 -101.8611 254° West 469 540 36,000  Level Denver Center
Mon 09:21:18 PM 38.2675 -102.0375 255° West 467 537 36,000  Level Denver Center
Mon 09:22:20 PM 38.2325 -102.1900 254° West 470 541 36,000  Level Denver Center
Mon 09:23:21 PM 38.1917 -102.3678 254° West 471 542 36,000  Level Denver Center
Mon 09:24:23 PM 38.1558 -102.5197 253° West 471 542 36,000  Level Denver Center
Mon 09:25:25 PM 38.1156 -102.6986 254° West 473 544 36,000  Level Denver Center
Mon 09:26:27 PM 38.0794 -102.8517 253° West 473 544 36,000  Level Denver Center
Mon 09:27:28 PM 38.0442 -103.0044 254° West 473 544 36,000  Level Denver Center
Mon 09:28:30 PM 38.0033 -103.1794 254° West 476 548 36,000  Level Denver Center
Mon 09:29:32 PM 37.9611 -103.3589 253° West 477 549 36,000  Level Denver Center
Mon 09:30:34 PM 37.9247 -103.5128 253° West 477 549 36,000  Level Denver Center
Mon 09:31:35 PM 37.8881 -103.6667 253° West 478 550 36,000  Level Denver Center
Mon 09:32:37 PM 37.8456 -103.8456 253° West 479 551 36,000  Level Denver Center
Mon 09:33:39 PM 37.8089 -103.9986 253° West 479 551 36,000  Level Denver Center
Mon 09:34:41 PM 37.7661 -104.1756 253° West 479 551 36,000  Level Denver Center
Mon 09:35:42 PM 37.7283 -104.3272 253° West 479 551 36,000  Level Denver Center
Mon 09:36:44 PM 37.6836 -104.5044 252° West 478 550 36,000  Level Denver Center
Mon 09:37:46 PM 37.6469 -104.6542 253° West 471 542 36,000  Level Denver Center
Mon 09:38:48 PM 37.6031 -104.8278 252° West 466 536 36,000  Level Denver Center
Mon 09:39:50 PM 37.5650 -104.9756 252° West 464 534 36,000  Level Denver Center
Mon 09:40:52 PM 37.5217 -105.1475 252° West 463 533 36,000  Level Denver Center
Mon 09:41:53 PM 37.4911 -105.2956 255° West 466 536 36,000  Level Denver Center
Mon 09:42:55 PM 37.4581 -105.4739 257° West 469 540 36,000  Level Denver Center
Mon 09:43:57 PM 37.4281 -105.6272 256° West 472 543 36,000  Level Denver Center
Mon 09:44:59 PM 37.3911 -105.8081 256° West 477 549 36,000  Level Denver Center
Mon 09:46:01 PM 37.3611 -105.9631 256° West 476 548 36,000  Level Denver Center
Mon 09:47:03 PM 37.3269 -106.1392 256° West 466 536 36,000  Level Denver Center
Mon 09:48:05 PM 37.2989 -106.2897 257° West 463 533 36,000  Level Denver Center
Mon 09:49:07 PM 37.2647 -106.4711 257° West 479 551 36,000  Level Denver Center
Mon 09:50:09 PM 37.2333 -106.6250 256° West 478 550 36,000  Level Denver Center
Mon 09:51:11 PM 37.2019 -106.7778 256° West 474 545 36,000  Level Denver Center
Mon 09:52:12 PM 37.1664 -106.9553 256° West 471 542 36,000  Level Denver Center
Mon 09:53:14 PM 37.1361 -107.1081 256° West 472 543 36,000  Level Denver Center
Mon 09:54:16 PM 37.0994 -107.2836 255° West 470 541 36,000  Level Denver Center
Mon 09:55:18 PM 37.0683 -107.4372 256° West 475 547 36,000  Level Denver Center
Mon 09:56:20 PM 37.0322 -107.6125 256° West 468 539 36,000  Level Denver Center
Mon 09:57:22 PM 37.0000 -107.7642 255° West 472 543 36,000  Level Denver Center
Mon 09:58:24 PM 36.9633 -107.9408 255° West 470 541 36,000  Level Denver Center
Mon 09:59:25 PM 36.9317 -108.0919 255° West 470 541 36,000  Level Denver Center
Mon 10:00:27 PM 36.8939 -108.2686 255° West 473 544 36,000  Level Denver Center
Mon 10:01:29 PM 36.8622 -108.4183 255° West 470 541 36,000  Level Denver Center
Mon 10:02:31 PM 36.8356 -108.5428 255° West 469 540 36,000  Level Denver Center
Mon 10:03:33 PM 36.7911 -108.7389 254° West 464 534 36,000  Level Denver Center
Mon 10:04:35 PM 36.7592 -108.8861 255° West 463 533 36,000  Level Denver Center
Mon 10:05:36 PM 36.7217 -109.0581 255° West 462 532 36,000  Level Denver Center
Mon 10:06:38 PM 36.6886 -109.2056 254° West 463 533 36,000  Level Denver Center
Mon 10:07:40 PM 36.6489 -109.3775 254° West 465 535 36,000  Level Denver Center
Mon 10:08:42 PM 36.6161 -109.5242 254° West 461 531 36,000  Level Denver Center
Mon 10:09:43 PM 36.5772 -109.6944 254° West 461 531 36,000  Level Denver Center
Mon 10:10:45 PM 36.5447 -109.8414 255° West 461 531 36,000  Level Denver Center
Mon 10:11:47 PM 36.5047 -110.0131 254° West 463 533 36,000  Level Denver Center
Mon 10:13:00 PM 36.4667 -110.1742 254° West 462 532 36,000  Level Denver Center
Mon 10:14:02 PM 36.4253 -110.3575 254° West 460 529 36,000  Level Denver Center
Mon 10:15:04 PM 36.3886 -110.5114 254° West 463 533 36,000  Level Denver Center
Mon 10:16:06 PM 36.3506 -110.6656 253° West 465 535 36,000  Level Denver Center
Mon 10:17:07 PM 36.3136 -110.8186 253° West 465 535 36,000  Level Denver Center
Mon 10:18:09 PM 36.2769 -110.9714 253° West 464 534 36,000  Level Denver Center
Mon 10:19:10 PM 36.2403 -111.1239 253° West 462 532 36,000  Level Denver Center
Mon 10:20:12 PM 36.2028 -111.2761 253° West 463 533 36,000  Level Denver Center
Mon 10:21:13 PM 36.1544 -111.4578 252° West 462 532 36,000  Level Denver Center
Mon 10:22:15 PM 36.1056 -111.6061 248° West 465 535 36,000  Level Denver Center
Mon 10:23:17 PM 36.0553 -111.7525 247° West 463 533 36,000  Level Denver Center
Mon 10:24:18 PM 36.0067 -111.8992 248° West 463 533 36,000  Level Denver Center
Mon 10:24:57 PM 35.9750 -111.9889 246° West 464 534 36,000  Level Los Angeles Center
Mon 10:25:59 PM 35.9258 -112.1344 247° West 463 533 36,000  Level Los Angeles Center
Mon 10:27:00 PM 35.8758 -112.2792 247° West 462 532 36,000  Level Los Angeles Center
Mon 10:28:02 PM 35.8269 -112.4247 248° West 463 533 36,000  Level Los Angeles Center
Mon 10:29:03 PM 35.7692 -112.6003 248° West 464 534 36,000  Level Los Angeles Center
Mon 10:30:05 PM 35.7192 -112.7456 247° West 467 537 36,000  Level Los Angeles Center
Mon 10:31:18 PM 35.6658 -112.8969 247° West 461 531 36,000  Level Los Angeles Center
Mon 10:32:20 PM 35.6075 -113.0669 247° West 467 537 36,000  Level Los Angeles Center
Mon 10:33:22 PM 35.5556 -113.2128 246° West 465 535 36,000  Level Los Angeles Center
Mon 10:34:23 PM 35.4992 -113.3758 247° West 465 535 36,000  Level Los Angeles Center
Mon 10:35:25 PM 35.4481 -113.5194 246° West 465 535 36,000  Level Los Angeles Center
Mon 10:36:27 PM 35.3967 -113.6628 246° West 464 534 36,000  Level Los Angeles Center
Mon 10:37:28 PM 35.3461 -113.8064 247° West 463 533 36,000  Level Los Angeles Center
Mon 10:38:30 PM 35.2883 -113.9689 247° West 461 531 36,000  Level Los Angeles Center
Mon 10:39:32 PM 35.2356 -114.1122 246° West 461 531 36,000  Level Los Angeles Center
Mon 10:40:33 PM 35.1844 -114.2561 247° West 459 528 36,000  Level Los Angeles Center
Mon 10:41:35 PM 35.1336 -114.3983 246° West 456 525 36,000  Level Los Angeles Center
Mon 10:42:37 PM 35.0814 -114.5397 246° West 454 522 36,000  Level Los Angeles Center
Mon 10:43:38 PM 35.0275 -114.6839 245° Southwest 466 536 36,000  Level Los Angeles Center
Mon 10:44:40 PM 34.9658 -114.8525 246° West 456 525 36,000  Level Los Angeles Center
Mon 10:45:41 PM 34.9150 -114.9933 246° West 454 522 36,000  Level Los Angeles Center
Mon 10:46:43 PM 34.8628 -115.1347 246° West 455 524 36,000  Level Los Angeles Center
Mon 10:47:45 PM 34.8114 -115.2742 246° West 452 520 36,000 -244 Level Los Angeles Center
Mon 10:48:46 PM 34.7592 -115.4153 246° West 453 521 35,500 -878 Descending Los Angeles Center
Mon 10:49:48 PM 34.7075 -115.5544 246° West 450 518 34,200 -1,258 Descending Los Angeles Center
Mon 10:50:50 PM 34.6536 -115.6978 245° Southwest 459 528 32,900 -1,171 Descending Los Angeles Center
Mon 10:51:51 PM 34.5992 -115.8394 245° Southwest 460 529 31,800 -927 Descending Los Angeles Center
Mon 10:52:53 PM 34.5461 -115.9806 245° Southwest 461 531 31,000 -774 Descending Los Angeles Center
Mon 10:53:55 PM 34.4933 -116.1192 245° Southwest 453 521 30,200 -829 Descending Los Angeles Center
Mon 10:54:56 PM 34.4297 -116.2836 245° Southwest 449 517 29,300 -780 Descending Los Angeles Center
Mon 10:55:58 PM 34.3772 -116.4197 245° Southwest 445 512 28,600 -634 Descending Los Angeles Center
Mon 10:56:59 PM 34.3244 -116.5536 245° Southwest 442 509 28,000 -1,268 Descending Los Angeles Center
Mon 10:58:01 PM 34.2728 -116.6856 245° Southwest 435 501 26,000 -1,984 Descending Los Angeles Center
Mon 10:59:03 PM 34.2225 -116.8161 245° Southwest 430 495 23,900 -2,146 Descending Los Angeles Center
Mon 11:00:04 PM 34.1733 -116.9417 245° Southwest 418 481 21,600 -2,172 Descending Los Angeles Center
Mon 11:00:59 PM 34.1167 -117.0667 241° Southwest 391 450 19,700 -2,069 Descending Southern California TRACON
Mon 11:02:00 PM 34.0833 -117.1833 251° West 379 436 17,600 -2,087 Descending Southern California TRACON
Mon 11:02:54 PM 34.0500 -117.2833 248° West 378 435 15,700 -1,684 Descending Southern California TRACON
Mon 11:03:54 PM 34.0333 -117.4000 260° West 349 402 14,400 -1,333 Descending Southern California TRACON
Mon 11:05:00 PM 34.0167 -117.5333 261° West 320 368 12,900 -1,476 Descending Southern California TRACON
Mon 11:06:00 PM 34.0167 -117.6333 270° West 381 438 11,300 -1,650 Descending Southern California TRACON
Mon 11:07:00 PM 34.0000 -117.7333 259° West 284 327 9,600 -1,579 Descending Southern California TRACON
Mon 11:07:54 PM 34.0000 -117.8167 270° West 276 318 8,300 -1,350 Descending Southern California TRACON
Mon 11:09:00 PM 33.9833 -117.9167 259° West 267 307 6,900 -1,238 Descending Southern California TRACON
Mon 11:10:00 PM 33.9667 -118.0000 256° West 239 275 5,700 -887 Descending Southern California TRACON
Mon 11:10:55 PM 33.9667 -118.0667 270° West 201 231 5,200 -678 Descending Southern California TRACON
Mon 11:11:55 PM 33.9667 -118.1167 270° West 186 214 4,400 -818 Descending Southern California TRACON
Mon 11:12:23 PM 33.9614 -118.1525 260° West 192 221 4,000 -857 Descending Los Angeles Center

Login

Don't have an account? Register now (free) for customized features, flight alerts, and more!